createdAt,value
2023-02-06T00:01:39.568Z,17.90
2023-02-06T00:04:06.882Z,17.30
2023-02-06T00:06:34.479Z,18.98
2023-02-06T00:09:03.297Z,17.33
2023-02-06T00:11:30.678Z,19.20
2023-02-06T00:13:58.070Z,20.08
2023-02-06T00:16:29.805Z,18.15
2023-02-06T00:19:00.076Z,18.13
2023-02-06T00:21:29.366Z,18.02
2023-02-06T00:24:00.411Z,18.20
2023-02-06T00:26:27.869Z,17.15
2023-02-06T00:28:55.181Z,16.58
2023-02-06T00:31:22.293Z,17.88
2023-02-06T00:33:49.840Z,19.25
2023-02-06T00:36:17.252Z,19.13
2023-02-06T00:38:44.688Z,17.88
2023-02-06T00:41:11.869Z,18.73
2023-02-06T00:43:39.121Z,16.95
2023-02-06T00:46:06.362Z,17.27
2023-02-06T00:48:33.726Z,17.10
2023-02-06T00:51:00.802Z,18.02
2023-02-06T00:53:28.203Z,18.63
2023-02-06T00:55:55.473Z,18.70
2023-02-06T00:58:22.900Z,19.33
2023-02-06T01:00:50.050Z,17.85
2023-02-06T01:03:17.300Z,19.67
2023-02-06T01:05:44.272Z,20.15
2023-02-06T01:08:11.557Z,21.17
2023-02-06T01:10:42.487Z,19.98
2023-02-06T01:13:11.559Z,20.48
2023-02-06T01:15:39.126Z,20.83
2023-02-06T01:18:06.369Z,18.58
2023-02-06T01:20:33.677Z,18.73
2023-02-06T01:23:00.862Z,18.00
2023-02-06T01:25:28.479Z,18.75
2023-02-06T01:27:55.817Z,18.73
2023-02-06T01:30:22.969Z,19.67
2023-02-06T01:32:50.351Z,21.08
2023-02-06T01:35:17.302Z,21.15
2023-02-06T01:37:44.598Z,19.92
2023-02-06T01:40:17.171Z,21.55
2023-02-06T01:42:44.671Z,20.20
2023-02-06T01:45:38.134Z,22.25
2023-02-06T01:48:19.789Z,23.25
2023-02-06T01:50:53.424Z,21.67
2023-02-06T01:53:22.587Z,23.53
2023-02-06T01:55:54.506Z,23.55
2023-02-06T01:58:43.805Z,25.20
2023-02-06T02:01:11.923Z,25.83
2023-02-06T02:03:44.570Z,23.98
2023-02-06T02:06:17.565Z,26.38
2023-02-06T02:08:51.006Z,24.48
2023-02-06T02:11:27.057Z,27.05
2023-02-06T02:13:56.703Z,25.50
2023-02-06T02:16:46.398Z,23.17
2023-02-06T02:19:51.327Z,25.80
2023-02-06T02:22:40.228Z,25.33
2023-02-06T02:25:31.810Z,27.67
2023-02-06T02:28:26.783Z,27.27
2023-02-06T02:31:24.075Z,25.92
2023-02-06T02:34:15.627Z,24.10
2023-02-06T02:37:08.124Z,26.95
2023-02-06T02:39:51.964Z,24.10
2023-02-06T02:42:37.377Z,24.27
2023-02-06T02:48:05.121Z,23.42
2023-02-06T02:50:33.881Z,24.52
2023-02-06T02:53:03.397Z,26.10
2023-02-06T02:55:30.409Z,23.45
2023-02-06T02:58:10.691Z,21.83
2023-02-06T03:00:48.850Z,21.90
2023-02-06T03:03:22.931Z,24.27
2023-02-06T03:06:10.859Z,23.20
2023-02-06T03:08:59.138Z,27.55
2023-02-06T03:11:27.583Z,25.95
2023-02-06T03:14:15.543Z,23.73
2023-02-06T03:16:50.551Z,23.58
2023-02-06T03:19:26.916Z,21.95
2023-02-06T03:21:54.022Z,22.27
2023-02-06T03:24:27.538Z,21.65
2023-02-06T03:27:04.051Z,20.00
2023-02-06T03:29:35.443Z,22.27
2023-02-06T03:32:12.529Z,20.02
2023-02-06T03:35:05.461Z,20.75
2023-02-06T03:37:35.215Z,20.83
2023-02-06T03:40:04.957Z,18.83
2023-02-06T03:42:39.295Z,20.70
2023-02-06T03:45:26.281Z,19.55
2023-02-06T03:47:59.254Z,18.00
2023-02-06T03:50:28.370Z,18.50
2023-02-06T03:53:00.187Z,18.73
2023-02-06T03:55:27.652Z,18.95
2023-02-06T03:58:06.057Z,19.60
2023-02-06T04:00:34.978Z,20.38
2023-02-06T04:03:03.866Z,19.92
2023-02-06T04:05:31.193Z,19.70
2023-02-06T04:07:58.340Z,18.60
2023-02-06T04:10:26.499Z,19.20
2023-02-06T04:12:54.201Z,18.60
2023-02-06T04:15:21.647Z,17.70
2023-02-06T04:17:59.572Z,17.77
2023-02-06T04:20:29.348Z,17.42
2023-02-06T04:22:57.385Z,17.73
2023-02-06T04:25:25.285Z,16.80
2023-02-06T04:27:52.468Z,18.08
2023-02-06T04:30:19.879Z,16.75
2023-02-06T04:32:46.832Z,17.30
2023-02-06T04:35:14.028Z,17.77
2023-02-06T04:37:41.009Z,18.45
2023-02-06T04:40:08.814Z,17.90
2023-02-06T04:42:35.797Z,18.23
2023-02-06T04:45:03.056Z,18.05
2023-02-06T04:47:29.992Z,17.38
2023-02-06T04:49:57.197Z,17.60
2023-02-06T04:52:24.194Z,15.55
2023-02-06T04:54:51.389Z,17.20
2023-02-06T04:57:18.404Z,16.95
2023-02-06T04:59:45.625Z,15.60
2023-02-06T05:02:12.719Z,16.70
2023-02-06T05:04:40.124Z,16.58
2023-02-06T05:07:07.031Z,16.15
2023-02-06T05:09:34.209Z,17.25
2023-02-06T05:12:01.273Z,16.35
2023-02-06T05:14:28.648Z,16.42
2023-02-06T05:16:55.643Z,18.35
2023-02-06T05:19:22.900Z,15.30
2023-02-06T05:21:49.892Z,15.52
2023-02-06T05:24:17.258Z,16.10
2023-02-06T05:26:45.076Z,17.13
2023-02-06T05:29:13.460Z,18.67
2023-02-06T05:31:40.472Z,16.25
2023-02-06T05:34:09.791Z,17.35
2023-02-06T05:36:36.907Z,16.13
2023-02-06T05:39:04.791Z,15.93
2023-02-06T05:41:31.943Z,18.35
2023-02-06T05:43:59.258Z,18.05
2023-02-06T05:46:26.481Z,16.40
2023-02-06T05:48:53.756Z,16.88
2023-02-06T05:51:20.768Z,16.83
2023-02-06T05:53:48.366Z,16.00
2023-02-06T05:56:15.244Z,18.23
2023-02-06T05:58:42.449Z,17.55
2023-02-06T06:01:12.302Z,15.95
2023-02-06T06:03:39.841Z,18.17
2023-02-06T06:06:07.822Z,17.55
2023-02-06T06:08:35.421Z,17.17
2023-02-06T06:11:02.888Z,17.92
2023-02-06T06:13:30.801Z,18.02
2023-02-06T06:15:57.821Z,17.10
2023-02-06T06:18:25.241Z,17.13
2023-02-06T06:20:52.210Z,18.08
2023-02-06T06:23:19.571Z,16.83
2023-02-06T06:25:48.158Z,16.00
2023-02-06T06:28:16.106Z,17.25
2023-02-06T06:30:43.298Z,16.73
2023-02-06T06:33:10.944Z,19.45
2023-02-06T06:35:38.411Z,15.95
2023-02-06T06:38:05.827Z,16.20
2023-02-06T06:40:32.732Z,17.65
2023-02-06T06:42:59.986Z,16.33
2023-02-06T06:45:27.264Z,16.80
2023-02-06T06:47:54.493Z,16.80
2023-02-06T06:50:21.513Z,17.20
2023-02-06T06:52:48.758Z,17.02
2023-02-06T06:55:15.873Z,17.63
2023-02-06T06:57:43.088Z,17.48
2023-02-06T07:00:11.644Z,16.13
2023-02-06T07:02:39.198Z,18.48
2023-02-06T07:05:07.113Z,16.77
2023-02-06T07:07:34.352Z,16.38
2023-02-06T07:10:02.017Z,16.70
2023-02-06T07:12:29.495Z,16.98
2023-02-06T07:14:56.483Z,15.95
2023-02-06T07:17:23.774Z,18.50
2023-02-06T07:19:52.632Z,17.55
2023-02-06T07:22:21.301Z,16.65
2023-02-06T07:24:48.823Z,17.80
2023-02-06T07:27:16.182Z,17.67
2023-02-06T07:29:43.428Z,18.13
2023-02-06T07:32:11.294Z,17.20
2023-02-06T07:34:38.339Z,15.60
2023-02-06T07:37:05.590Z,16.90
2023-02-06T07:39:32.935Z,18.30
2023-02-06T07:42:00.158Z,18.95
2023-02-06T07:44:27.218Z,18.13
2023-02-06T07:46:54.880Z,16.52
2023-02-06T07:49:21.950Z,17.42
2023-02-06T07:51:49.278Z,16.23
2023-02-06T07:54:16.536Z,18.13
2023-02-06T07:56:43.883Z,17.58
2023-02-06T07:59:10.866Z,20.23
2023-02-06T08:01:38.200Z,17.25
2023-02-06T08:04:05.347Z,16.48
2023-02-06T08:06:32.702Z,17.60
2023-02-06T08:08:59.774Z,16.75
2023-02-06T08:11:30.276Z,17.30
2023-02-06T08:13:57.952Z,15.70
2023-02-06T08:16:25.552Z,16.15
2023-02-06T08:18:52.535Z,16.30
2023-02-06T08:21:23.627Z,17.00
2023-02-06T08:23:55.948Z,15.75
2023-02-06T08:26:24.961Z,17.42
2023-02-06T08:28:53.888Z,18.50
2023-02-06T08:31:32.434Z,16.85
2023-02-06T08:34:01.094Z,17.50
2023-02-06T08:36:32.658Z,18.30
2023-02-06T08:39:01.622Z,18.77
2023-02-06T08:41:33.037Z,17.80
2023-02-06T08:44:02.270Z,18.25
2023-02-06T08:46:32.286Z,18.23
2023-02-06T08:49:07.316Z,17.70
2023-02-06T08:51:36.851Z,15.80
2023-02-06T08:54:09.052Z,16.40
2023-02-06T08:56:37.771Z,18.13
2023-02-06T08:59:06.804Z,16.52
2023-02-06T09:01:36.787Z,15.50
2023-02-06T09:04:10.922Z,13.07
2023-02-06T09:06:42.910Z,15.10
2023-02-06T09:09:12.123Z,15.45
2023-02-06T09:11:40.230Z,16.17
2023-02-06T09:14:12.727Z,14.48
2023-02-06T09:16:39.963Z,17.73
2023-02-06T09:19:07.069Z,18.45
2023-02-06T09:21:36.502Z,19.02
2023-02-06T09:24:07.611Z,17.20
2023-02-06T09:26:53.378Z,18.27
2023-02-06T09:29:24.501Z,19.00
2023-02-06T09:31:51.973Z,19.08
2023-02-06T09:34:18.979Z,17.73
2023-02-06T09:36:46.482Z,20.23
2023-02-06T09:39:13.739Z,18.88
2023-02-06T09:41:53.560Z,17.58
2023-02-06T09:44:28.349Z,17.92
2023-02-06T09:47:17.129Z,18.60
2023-02-06T09:49:50.260Z,18.02
2023-02-06T09:53:06.494Z,17.25
2023-02-06T09:55:45.180Z,17.13
2023-02-06T09:58:21.680Z,18.88
2023-02-06T10:01:12.298Z,17.00
2023-02-06T10:04:33.166Z,17.10
2023-02-06T10:07:24.122Z,18.85
2023-02-06T10:10:02.715Z,18.92
2023-02-06T10:12:45.341Z,18.45
2023-02-06T10:15:33.473Z,18.08
2023-02-06T10:18:40.136Z,17.67
2023-02-06T10:21:14.108Z,16.98
2023-02-06T10:24:14.637Z,18.85
2023-02-06T10:26:42.683Z,16.40
2023-02-06T10:29:26.940Z,17.23
2023-02-06T10:32:08.738Z,17.88
2023-02-06T10:34:57.301Z,17.65
2023-02-06T10:37:50.574Z,16.13
2023-02-06T10:40:47.478Z,16.85
2023-02-06T10:43:29.078Z,19.38
2023-02-06T10:46:01.727Z,18.65
2023-02-06T10:48:41.800Z,17.55
2023-02-06T10:51:35.214Z,18.92
2023-02-06T10:54:31.220Z,17.05
2023-02-06T10:57:00.715Z,16.67
2023-02-06T10:59:43.261Z,19.05
2023-02-06T11:02:12.092Z,17.83
2023-02-06T11:04:46.417Z,18.83
2023-02-06T11:07:31.060Z,18.20
2023-02-06T11:09:59.698Z,19.45
2023-02-06T11:12:42.415Z,19.30
2023-02-06T11:15:32.731Z,18.73
2023-02-06T11:18:04.421Z,19.00
2023-02-06T11:20:36.413Z,20.17
2023-02-06T11:23:21.724Z,18.33
2023-02-06T11:28:56.660Z,17.65
2023-02-06T11:31:54.064Z,17.45
2023-02-06T11:34:29.958Z,16.38
2023-02-06T11:37:07.483Z,16.13
2023-02-06T11:39:38.895Z,16.63
2023-02-06T11:42:22.730Z,17.30
2023-02-06T11:44:50.643Z,16.30
2023-02-06T11:47:28.468Z,13.82
2023-02-06T11:49:56.522Z,13.55
2023-02-06T11:52:33.612Z,14.15
2023-02-06T11:55:03.638Z,15.60
2023-02-06T11:57:34.147Z,13.30
2023-02-06T12:00:21.707Z,12.80
2023-02-06T12:02:55.573Z,12.13
2023-02-06T12:05:29.036Z,12.55
2023-02-06T12:08:04.324Z,12.52
2023-02-06T12:10:39.106Z,12.90
2023-02-06T12:13:20.229Z,12.52
2023-02-06T12:15:53.544Z,12.95
2023-02-06T12:18:29.216Z,13.07
2023-02-06T12:21:13.277Z,12.60
2023-02-06T12:23:54.895Z,14.07
2023-02-06T12:26:27.665Z,14.10
2023-02-06T12:29:07.110Z,12.50
2023-02-06T12:31:56.953Z,12.73
2023-02-06T12:34:45.750Z,12.07
2023-02-06T12:37:39.834Z,12.88
2023-02-06T12:40:29.292Z,11.27
2023-02-06T12:43:22.745Z,13.02
2023-02-06T12:46:18.634Z,13.20
2023-02-06T12:49:27.183Z,12.07
2023-02-06T12:52:10.462Z,11.75
2023-02-06T12:54:50.629Z,9.00
2023-02-06T12:57:24.740Z,11.48
2023-02-06T13:00:22.470Z,8.35
2023-02-06T13:03:23.486Z,9.00
2023-02-06T13:06:12.988Z,7.70
2023-02-06T13:08:59.705Z,8.80
2023-02-06T13:11:40.704Z,7.60
2023-02-06T13:14:25.026Z,7.57
2023-02-06T13:17:10.200Z,7.68
2023-02-06T13:19:37.354Z,7.20
2023-02-06T13:22:10.250Z,7.53
2023-02-06T13:24:39.895Z,6.97
2023-02-06T13:27:23.922Z,8.73
2023-02-06T13:29:54.351Z,7.43
2023-02-06T13:32:31.800Z,7.13
2023-02-06T13:35:21.360Z,9.00
2023-02-06T13:37:51.408Z,7.40
2023-02-06T13:40:33.195Z,8.68
2023-02-06T13:43:19.796Z,8.35
2023-02-06T13:46:07.619Z,8.82
2023-02-06T13:49:12.256Z,7.78
2023-02-06T13:52:15.146Z,9.05
2023-02-06T13:54:54.286Z,10.20
2023-02-06T13:58:18.309Z,9.13
2023-02-06T14:00:51.299Z,8.02
2023-02-06T14:03:31.649Z,7.68
2023-02-06T14:06:59.881Z,7.75
2023-02-06T14:09:53.691Z,7.82
2023-02-06T14:12:49.727Z,8.10
2023-02-06T14:15:44.454Z,8.43
2023-02-06T14:18:27.036Z,8.93
2023-02-06T14:21:29.224Z,11.10
2023-02-06T14:23:58.975Z,11.85
2023-02-06T14:26:50.936Z,11.75
2023-02-06T14:29:31.845Z,10.75
2023-02-06T14:32:08.774Z,10.65
2023-02-06T14:35:18.000Z,11.65
2023-02-06T14:38:35.207Z,12.63
2023-02-06T14:41:04.198Z,13.75
2023-02-06T14:43:41.016Z,12.30
2023-02-06T14:46:15.896Z,11.80
2023-02-06T14:48:43.111Z,11.90
2023-02-06T14:51:28.703Z,12.80
2023-02-06T14:54:03.865Z,13.20
2023-02-06T14:59:19.621Z,12.68
2023-02-06T15:01:51.278Z,15.45
2023-02-06T15:04:29.519Z,13.70
2023-02-06T15:07:07.091Z,13.00
2023-02-06T15:09:44.101Z,11.30
2023-02-06T15:12:24.429Z,12.18
2023-02-06T15:15:05.418Z,14.95
2023-02-06T15:17:34.529Z,12.30
2023-02-06T15:20:20.891Z,11.55
2023-02-06T15:22:48.760Z,12.55
2023-02-06T15:25:39.356Z,12.07
2023-02-06T15:28:13.246Z,13.35
2023-02-06T15:30:41.081Z,12.40
2023-02-06T15:33:21.697Z,11.23
2023-02-06T15:35:53.291Z,12.93
2023-02-06T15:38:24.614Z,12.10
2023-02-06T15:41:07.316Z,13.30
2023-02-06T15:43:36.297Z,12.30
2023-02-06T15:46:06.367Z,13.90
2023-02-06T15:48:50.672Z,13.82
2023-02-06T15:51:24.883Z,14.27
2023-02-06T15:54:16.815Z,13.63
2023-02-06T15:56:51.120Z,14.05
2023-02-06T15:59:25.486Z,11.43
2023-02-06T16:01:56.768Z,14.30
2023-02-06T16:04:39.772Z,16.52
2023-02-06T16:07:19.571Z,16.33
2023-02-06T16:10:04.644Z,15.52
2023-02-06T16:12:39.265Z,15.25
2023-02-06T16:15:35.641Z,15.30
2023-02-06T16:18:32.784Z,15.85
2023-02-06T16:21:17.119Z,15.88
2023-02-06T16:24:06.869Z,15.10
2023-02-06T16:26:47.157Z,15.15
2023-02-06T16:29:22.856Z,15.93
2023-02-06T16:32:02.668Z,15.68
2023-02-06T16:34:39.854Z,15.60
2023-02-06T16:37:16.733Z,18.83
2023-02-06T16:39:45.827Z,16.30
2023-02-06T16:42:35.373Z,20.08
2023-02-06T16:45:28.299Z,18.35
2023-02-06T16:47:55.928Z,20.63
2023-02-06T16:50:23.180Z,17.60
2023-02-06T16:53:00.979Z,18.75
2023-02-06T16:55:29.226Z,19.20
2023-02-06T16:58:00.690Z,18.58
2023-02-06T17:00:32.177Z,20.55
2023-02-06T17:02:59.902Z,19.70
2023-02-06T17:05:29.485Z,20.15
2023-02-06T17:07:56.763Z,18.98
2023-02-06T17:10:26.945Z,20.02
2023-02-06T17:12:54.364Z,18.48
2023-02-06T17:15:22.958Z,19.35
2023-02-06T17:17:49.964Z,18.63
2023-02-06T17:20:40.215Z,19.08
2023-02-06T17:23:08.418Z,18.27
2023-02-06T17:25:36.006Z,17.83
2023-02-06T17:28:06.982Z,18.70
2023-02-06T17:30:37.937Z,18.27
2023-02-06T17:33:06.335Z,19.38
2023-02-06T17:35:38.235Z,18.73
2023-02-06T17:38:08.126Z,18.35
2023-02-06T17:40:37.970Z,16.75
2023-02-06T17:43:05.797Z,16.10
2023-02-06T17:45:37.197Z,18.17
2023-02-06T17:48:05.001Z,16.85
2023-02-06T17:50:34.395Z,16.45
2023-02-06T17:53:02.884Z,15.38
2023-02-06T17:55:30.285Z,17.08
2023-02-06T17:57:57.906Z,15.57
2023-02-06T18:00:26.191Z,17.17
2023-02-06T18:02:55.831Z,17.30
2023-02-06T18:05:24.567Z,17.67
2023-02-06T18:07:52.404Z,18.05
2023-02-06T18:10:24.060Z,16.95
2023-02-06T18:12:51.409Z,17.25
2023-02-06T18:15:18.889Z,17.88
2023-02-06T18:17:45.977Z,17.48
2023-02-06T18:20:15.079Z,19.27
2023-02-06T18:22:42.368Z,16.65
2023-02-06T18:25:15.184Z,17.70
2023-02-06T18:27:45.871Z,18.40
2023-02-06T18:30:15.443Z,18.70
2023-02-06T18:32:42.834Z,16.85
2023-02-06T18:35:11.085Z,16.73
2023-02-06T18:37:38.272Z,18.02
2023-02-06T18:40:06.050Z,18.85
2023-02-06T18:42:51.113Z,17.80
2023-02-06T18:47:46.636Z,17.88
2023-02-06T18:50:14.999Z,19.88
2023-02-06T18:52:42.171Z,19.25
2023-02-06T18:55:11.134Z,19.52
2023-02-06T18:57:38.418Z,17.02
2023-02-06T19:00:09.373Z,18.85
2023-02-06T19:02:36.574Z,18.65
2023-02-06T19:05:04.336Z,18.90
2023-02-06T19:07:31.532Z,17.95
2023-02-06T19:10:01.278Z,17.73
2023-02-06T19:12:29.498Z,18.27
2023-02-06T19:14:58.569Z,18.45
2023-02-06T19:17:28.562Z,18.50
2023-02-06T19:19:56.109Z,19.80
2023-02-06T19:22:24.024Z,19.00
2023-02-06T19:24:53.250Z,17.35
2023-02-06T19:27:21.652Z,19.27
2023-02-06T19:29:49.168Z,18.23
2023-02-06T19:32:16.309Z,17.10
2023-02-06T19:34:45.271Z,17.17
2023-02-06T19:37:14.301Z,18.90
2023-02-06T19:39:43.278Z,18.02
2023-02-06T19:42:15.568Z,17.45
2023-02-06T19:44:44.260Z,18.50
2023-02-06T19:47:12.316Z,18.92
2023-02-06T19:49:40.983Z,19.45
2023-02-06T19:52:09.584Z,22.58
2023-02-06T19:54:36.898Z,18.27
2023-02-06T19:57:04.091Z,19.65
2023-02-06T19:59:31.875Z,19.67
2023-02-06T20:02:02.051Z,20.20
2023-02-06T20:04:36.071Z,20.00
2023-02-06T20:07:03.586Z,18.53
2023-02-06T20:09:31.850Z,17.88
2023-02-06T20:11:59.172Z,18.25
2023-02-06T20:14:26.875Z,19.80
2023-02-06T20:16:54.504Z,20.05
2023-02-06T20:19:25.984Z,22.38
2023-02-06T20:21:57.754Z,20.23
2023-02-06T20:24:30.349Z,22.38
2023-02-06T20:27:02.572Z,22.58
2023-02-06T20:29:37.773Z,22.35
2023-02-06T20:32:06.771Z,21.52
2023-02-06T20:34:35.500Z,20.63
2023-02-06T20:37:04.506Z,22.30
2023-02-06T20:39:32.084Z,23.33
2023-02-06T20:41:59.413Z,22.70
2023-02-06T20:44:26.560Z,22.05
2023-02-06T20:46:53.819Z,21.05
2023-02-06T20:49:27.725Z,20.60
2023-02-06T20:51:55.926Z,20.48
2023-02-06T20:54:24.917Z,22.95
2023-02-06T20:56:52.671Z,24.02
2023-02-06T20:59:21.572Z,24.38
2023-02-06T21:01:49.385Z,25.08
2023-02-06T21:04:18.314Z,25.50
2023-02-06T21:06:47.944Z,24.77
2023-02-06T21:09:17.993Z,32.60
2023-02-06T21:11:50.122Z,25.25
2023-02-06T21:14:18.887Z,23.35
2023-02-06T21:16:47.352Z,25.50
2023-02-06T21:19:16.938Z,26.63
2023-02-06T21:21:46.344Z,23.27
2023-02-06T21:24:14.781Z,20.63
2023-02-06T21:26:42.641Z,24.23
2023-02-06T21:29:12.933Z,24.00
2023-02-06T21:31:40.925Z,24.20
2023-02-06T21:34:22.832Z,24.08
2023-02-06T21:36:51.176Z,25.58
2023-02-06T21:39:23.728Z,23.55
2023-02-06T21:41:53.701Z,27.13
2023-02-06T21:44:24.032Z,26.85
2023-02-06T21:46:52.664Z,27.85
2023-02-06T21:49:21.212Z,27.55
2023-02-06T21:51:48.681Z,23.42
2023-02-06T21:54:16.181Z,26.42
2023-02-06T21:56:43.876Z,26.30
2023-02-06T21:59:12.646Z,24.90
2023-02-06T22:01:41.256Z,28.50
2023-02-06T22:04:11.112Z,25.10
2023-02-06T22:06:38.837Z,27.38
2023-02-06T22:09:11.281Z,23.80
2023-02-06T22:11:40.082Z,24.02
2023-02-06T22:14:16.629Z,25.55
2023-02-06T22:16:46.577Z,23.92
2023-02-06T22:19:15.389Z,23.92
2023-02-06T22:21:42.887Z,24.67
2023-02-06T22:24:12.502Z,24.90
2023-02-06T22:26:41.493Z,25.40
2023-02-06T22:29:16.556Z,23.95
2023-02-06T22:31:45.124Z,21.83
2023-02-06T22:34:21.634Z,23.90
2023-02-06T22:36:51.257Z,24.50
2023-02-06T22:39:18.528Z,21.73
2023-02-06T22:41:47.099Z,21.92
2023-02-06T22:44:18.240Z,23.38
2023-02-06T22:46:49.971Z,21.77
2023-02-06T22:49:18.620Z,20.73
2023-02-06T22:51:46.757Z,20.70
2023-02-06T22:54:14.899Z,20.65
2023-02-06T22:56:43.477Z,21.00
2023-02-06T22:59:19.440Z,20.92
2023-02-06T23:01:54.628Z,21.60
2023-02-06T23:04:26.123Z,22.00
2023-02-06T23:06:54.188Z,22.30
2023-02-06T23:09:30.974Z,21.67
2023-02-06T23:11:58.955Z,21.80
2023-02-06T23:14:28.592Z,20.83
2023-02-06T23:16:56.384Z,21.02
2023-02-06T23:19:23.672Z,20.02
2023-02-06T23:21:51.720Z,21.73
2023-02-06T23:24:20.402Z,21.10
2023-02-06T23:26:50.702Z,22.20
2023-02-06T23:29:20.315Z,23.98
2023-02-06T23:31:49.133Z,23.20
2023-02-06T23:34:17.991Z,24.23
2023-02-06T23:36:46.330Z,24.13
2023-02-06T23:39:13.402Z,25.70
2023-02-06T23:41:40.970Z,26.20
2023-02-06T23:44:09.054Z,24.33
2023-02-06T23:46:39.675Z,25.75
2023-02-06T23:49:07.164Z,26.30
2023-02-06T23:51:35.822Z,24.88
2023-02-06T23:54:03.019Z,26.58
2023-02-06T23:56:32.394Z,25.38
2023-02-06T23:59:01.941Z,25.92
